createdAt,value
2022-11-07T00:02:08.927Z,100335.06
2022-11-07T00:04:37.691Z,100339.38
2022-11-07T00:07:07.829Z,100343.50
2022-11-07T00:09:38.518Z,100361.50
2022-11-07T00:12:06.899Z,100357.13
2022-11-07T00:14:35.335Z,100359.63
2022-11-07T00:17:03.331Z,100363.03
2022-11-07T00:19:31.388Z,100370.72
2022-11-07T00:21:59.684Z,100371.56
2022-11-07T00:24:27.639Z,100376.66
2022-11-07T00:26:55.908Z,100355.44
2022-11-07T00:29:24.080Z,100362.03
2022-11-07T00:31:52.229Z,100368.91
2022-11-07T00:34:20.449Z,100367.13
2022-11-07T00:36:48.655Z,100347.94
2022-11-07T00:39:16.630Z,100373.88
2022-11-07T00:41:47.469Z,100387.59
2022-11-07T00:44:15.786Z,100379.88
2022-11-07T00:46:43.751Z,100376.47
2022-11-07T00:49:11.866Z,100384.19
2022-11-07T00:51:40.337Z,100380.78
2022-11-07T00:54:08.342Z,100381.81
2022-11-07T00:56:36.233Z,100388.50
2022-11-07T00:59:05.657Z,100397.91
2022-11-07T01:01:35.104Z,100404.69
2022-11-07T01:04:21.448Z,100393.47
2022-11-07T01:06:49.497Z,100403.78
2022-11-07T01:09:21.209Z,100404.63
2022-11-07T01:11:51.191Z,100408.09
2022-11-07T01:14:22.717Z,100410.75
2022-11-07T01:16:51.553Z,100415.84
2022-11-07T01:19:20.604Z,100421.91
2022-11-07T01:21:49.356Z,100409.72
2022-11-07T01:24:18.640Z,100416.63
2022-11-07T01:26:52.622Z,100428.53
2022-11-07T01:29:21.482Z,100434.53
2022-11-07T01:31:49.592Z,100420.69
2022-11-07T01:34:18.409Z,100423.25
2022-11-07T01:36:46.570Z,100430.94
2022-11-07T01:39:14.619Z,100422.38
2022-11-07T01:41:43.185Z,100430.94
2022-11-07T01:44:11.115Z,100430.88
2022-11-07T01:46:44.393Z,100438.59
2022-11-07T01:49:24.749Z,100438.59
2022-11-07T01:51:52.711Z,100436.03
2022-11-07T01:54:27.277Z,100437.84
2022-11-07T01:57:00.398Z,100442.03
2022-11-07T01:59:31.778Z,100447.19
2022-11-07T02:02:00.425Z,100449.69
2022-11-07T02:04:31.626Z,100459.13
2022-11-07T02:07:09.949Z,100450.47
2022-11-07T02:09:38.083Z,100447.91
2022-11-07T02:12:08.209Z,100458.03
2022-11-07T02:14:36.256Z,100458.81
2022-11-07T02:17:04.928Z,100459.66
2022-11-07T02:20:02.143Z,100458.81
2022-11-07T02:22:35.829Z,100464.81
2022-11-07T02:25:09.356Z,100463.97
2022-11-07T02:27:42.679Z,100476.78
2022-11-07T02:30:21.367Z,100475.88
2022-11-07T02:32:50.486Z,100478.47
2022-11-07T02:35:55.288Z,100480.22
2022-11-07T02:38:33.137Z,100480.19
2022-11-07T02:41:23.670Z,100472.44
2022-11-07T02:43:58.679Z,100486.13
2022-11-07T02:46:28.875Z,100488.69
2022-11-07T02:49:00.095Z,100475.06
2022-11-07T02:51:28.209Z,100489.47
2022-11-07T02:53:58.643Z,100485.09
2022-11-07T02:56:27.152Z,100488.50
2022-11-07T02:58:55.350Z,100487.72
2022-11-07T03:01:24.662Z,100479.22
2022-11-07T03:03:52.922Z,100501.28
2022-11-07T03:06:24.208Z,100495.22
2022-11-07T03:08:54.728Z,100490.00
2022-11-07T03:11:22.803Z,100480.84
2022-11-07T03:13:52.022Z,100508.00
2022-11-07T03:16:22.580Z,100501.03
2022-11-07T03:18:50.542Z,100496.66
2022-11-07T03:21:18.563Z,100501.81
2022-11-07T03:23:48.208Z,100497.56
2022-11-07T03:26:15.905Z,100492.34
2022-11-07T03:28:43.867Z,100499.16
2022-11-07T03:31:11.924Z,100507.81
2022-11-07T03:33:39.951Z,100501.75
2022-11-07T03:36:08.309Z,100515.44
2022-11-07T03:38:38.592Z,100515.38
2022-11-07T03:41:06.652Z,100505.94
2022-11-07T03:43:34.647Z,100513.69
2022-11-07T03:46:04.730Z,100507.63
2022-11-07T03:48:32.704Z,100518.78
2022-11-07T03:51:00.673Z,100513.50
2022-11-07T03:53:28.885Z,100520.47
2022-11-07T03:55:57.990Z,100513.69
2022-11-07T03:58:26.808Z,100522.97
2022-11-07T04:00:54.995Z,100522.09
2022-11-07T04:03:22.985Z,100514.28
2022-11-07T04:05:50.940Z,100514.28
2022-11-07T04:08:19.324Z,100518.59
2022-11-07T04:10:47.951Z,100534.53
2022-11-07T04:13:37.915Z,100521.59
2022-11-07T04:16:31.938Z,100526.75
2022-11-07T04:19:03.888Z,100530.94
2022-11-07T04:21:31.821Z,100533.66
2022-11-07T04:23:59.837Z,100538.69
2022-11-07T04:26:47.605Z,100533.59
2022-11-07T04:29:15.562Z,100534.47
2022-11-07T04:31:43.563Z,100544.81
2022-11-07T04:34:11.793Z,100541.44
2022-11-07T04:36:39.764Z,100543.19
2022-11-07T04:39:07.766Z,100555.31
2022-11-07T04:41:37.644Z,100536.66
2022-11-07T04:44:06.672Z,100540.78
2022-11-07T04:47:15.116Z,100551.06
2022-11-07T04:49:43.064Z,100559.69
2022-11-07T04:52:12.753Z,100550.41
2022-11-07T04:54:40.462Z,100552.19
2022-11-07T04:57:08.558Z,100558.31
2022-11-07T04:59:36.536Z,100528.28
2022-11-07T05:02:06.836Z,100545.06
2022-11-07T05:04:34.924Z,100562.03
2022-11-07T05:07:03.608Z,100557.72
2022-11-07T05:09:33.685Z,100565.47
2022-11-07T05:12:03.809Z,100561.19
2022-11-07T05:14:31.997Z,100556.81
2022-11-07T05:17:01.366Z,100546.69
2022-11-07T05:19:29.560Z,100560.25
2022-11-07T05:22:19.440Z,100567.09
2022-11-07T05:24:47.463Z,100544.09
2022-11-07T05:27:22.024Z,100570.44
2022-11-07T05:29:52.704Z,100566.06
2022-11-07T05:32:20.801Z,100555.91
2022-11-07T05:34:49.895Z,100565.94
2022-11-07T05:37:18.000Z,100557.19
2022-11-07T05:39:47.307Z,100565.75
2022-11-07T05:42:18.158Z,100552.91
2022-11-07T05:44:47.747Z,100565.63
2022-11-07T05:47:15.599Z,100567.31
2022-11-07T05:49:43.618Z,100563.84
2022-11-07T05:52:11.700Z,100561.38
2022-11-07T05:54:39.603Z,100572.41
2022-11-07T05:57:07.640Z,100569.81
2022-11-07T05:59:35.811Z,100561.38
2022-11-07T06:02:04.011Z,100571.44
2022-11-07T06:04:32.145Z,100569.81
2022-11-07T06:07:01.682Z,100574.16
2022-11-07T06:09:29.373Z,100573.38
2022-11-07T06:11:57.296Z,100559.22
2022-11-07T06:14:26.717Z,100581.19
2022-11-07T06:16:54.723Z,100584.53
2022-11-07T06:19:22.701Z,100573.56
2022-11-07T06:21:51.610Z,100593.00
2022-11-07T06:24:20.780Z,100578.28
2022-11-07T06:26:48.806Z,100579.13
2022-11-07T06:29:16.993Z,100584.28
2022-11-07T06:31:45.087Z,100548.13
2022-11-07T06:34:12.929Z,100579.97
2022-11-07T06:36:41.858Z,100584.22
2022-11-07T06:39:09.891Z,100587.66
2022-11-07T06:41:37.824Z,100579.19
2022-11-07T06:44:07.801Z,100580.03
2022-11-07T06:46:35.787Z,100585.91
2022-11-07T06:49:04.005Z,100585.84
2022-11-07T06:51:32.205Z,100581.53
2022-11-07T06:54:00.110Z,100592.69
2022-11-07T06:56:28.086Z,100578.81
2022-11-07T06:58:57.075Z,100587.34
2022-11-07T07:01:25.288Z,100587.25
2022-11-07T07:03:54.312Z,100594.03
2022-11-07T07:06:23.731Z,100588.16
2022-11-07T07:08:51.672Z,100602.50
2022-11-07T07:11:19.749Z,100598.09
2022-11-07T07:13:47.906Z,100611.72
2022-11-07T07:16:15.917Z,100585.31
2022-11-07T07:18:43.906Z,100601.34
2022-11-07T07:21:15.804Z,100600.44
2022-11-07T07:23:43.993Z,100598.63
2022-11-07T07:26:19.463Z,100601.28
2022-11-07T07:28:47.502Z,100608.84
2022-11-07T07:31:15.392Z,100604.44
2022-11-07T07:33:45.545Z,100607.03
2022-11-07T07:36:19.259Z,100600.84
2022-11-07T07:38:49.818Z,100600.84
2022-11-07T07:41:19.135Z,100610.91
2022-11-07T07:43:47.293Z,100607.44
2022-11-07T07:46:19.006Z,100603.09
2022-11-07T07:48:46.992Z,100612.41
2022-11-07T07:51:15.000Z,100613.94
2022-11-07T07:53:43.096Z,100610.53
2022-11-07T07:56:11.086Z,100613.03
2022-11-07T07:58:39.085Z,100612.97
2022-11-07T08:01:11.305Z,100618.09
2022-11-07T08:04:00.340Z,100618.88
2022-11-07T08:06:28.834Z,100607.03
2022-11-07T08:08:56.832Z,100619.69
2022-11-07T08:11:24.930Z,100613.81
2022-11-07T08:13:55.138Z,100623.44
2022-11-07T08:16:26.498Z,100615.75
2022-11-07T08:18:54.540Z,100614.84
2022-11-07T08:21:22.668Z,100622.59
2022-11-07T08:23:54.226Z,100618.09
2022-11-07T08:26:22.270Z,100614.72
2022-11-07T08:28:51.195Z,100618.03
2022-11-07T08:31:19.139Z,100616.22
2022-11-07T08:33:47.269Z,100618.69
2022-11-07T08:36:15.618Z,100624.66
2022-11-07T08:38:43.591Z,100620.38
2022-11-07T08:41:11.721Z,100602.53
2022-11-07T08:43:40.693Z,100614.31
2022-11-07T08:46:08.696Z,100614.31
2022-11-07T08:48:36.737Z,100620.38
2022-11-07T08:51:05.091Z,100612.78
2022-11-07T08:53:34.307Z,100603.44
2022-11-07T08:56:04.784Z,100615.38
2022-11-07T08:58:35.566Z,100626.69
2022-11-07T09:01:07.877Z,100621.69
2022-11-07T09:03:50.347Z,100590.69
2022-11-07T09:06:25.269Z,100620.09
2022-11-07T09:08:53.646Z,100608.38
2022-11-07T09:11:22.745Z,100623.56
2022-11-07T09:13:50.839Z,100619.50
2022-11-07T09:16:19.203Z,100629.75
2022-11-07T09:18:49.267Z,100628.09
2022-11-07T09:21:22.107Z,100629.13
2022-11-07T09:23:52.796Z,100625.75
2022-11-07T09:26:20.928Z,100633.56
2022-11-07T09:28:52.348Z,100625.03
2022-11-07T09:31:23.200Z,100635.44
2022-11-07T09:33:51.289Z,100637.22
2022-11-07T09:36:19.462Z,100634.72
2022-11-07T09:38:47.667Z,100634.00
2022-11-07T09:41:29.211Z,100637.53
2022-11-07T09:44:15.681Z,100639.47
2022-11-07T09:46:43.538Z,100640.44
2022-11-07T09:49:21.147Z,100638.97
2022-11-07T09:51:57.086Z,100647.56
2022-11-07T09:54:31.634Z,100648.50
2022-11-07T09:57:00.686Z,100649.47
2022-11-07T09:59:44.353Z,100641.84
2022-11-07T10:02:22.156Z,100642.84
2022-11-07T10:04:57.632Z,100653.31
2022-11-07T10:07:38.817Z,100649.16
2022-11-07T10:10:22.762Z,100653.53
2022-11-07T10:13:17.611Z,100660.50
2022-11-07T10:15:57.591Z,100662.34
2022-11-07T10:18:53.146Z,100655.69
2022-11-07T10:21:38.031Z,100662.53
2022-11-07T10:24:06.278Z,100654.91
2022-11-07T10:26:34.563Z,100653.41
2022-11-07T10:29:16.777Z,100659.28
2022-11-07T10:31:52.468Z,100662.09
2022-11-07T10:34:26.787Z,100662.94
2022-11-07T10:36:54.765Z,100665.56
2022-11-07T10:39:22.734Z,100672.47
2022-11-07T10:42:07.117Z,100662.25
2022-11-07T10:44:36.238Z,100676.00
2022-11-07T10:48:14.008Z,100669.22
2022-11-07T10:50:55.286Z,100669.41
2022-11-07T10:53:26.181Z,100653.50
2022-11-07T10:55:56.127Z,100683.94
2022-11-07T10:58:30.055Z,100678.81
2022-11-07T11:01:07.915Z,100684.88
2022-11-07T11:03:45.347Z,100683.19
2022-11-07T11:06:31.643Z,100690.09
2022-11-07T11:09:15.558Z,100686.78
2022-11-07T11:11:51.624Z,100687.72
2022-11-07T11:14:25.216Z,100691.16
2022-11-07T11:16:57.319Z,100692.84
2022-11-07T11:19:41.855Z,100698.00
2022-11-07T11:22:18.749Z,100703.16
2022-11-07T11:24:47.257Z,100700.56
2022-11-07T11:27:22.639Z,100689.59
2022-11-07T11:29:59.665Z,100700.69
2022-11-07T11:33:04.228Z,100706.78
2022-11-07T11:35:47.097Z,100705.16
2022-11-07T11:38:18.430Z,100705.94
2022-11-07T11:41:05.948Z,100705.16
2022-11-07T11:44:12.802Z,100695.81
2022-11-07T11:47:05.392Z,100700.13
2022-11-07T11:49:44.017Z,100698.53
2022-11-07T11:52:22.157Z,100698.50
2022-11-07T11:54:53.043Z,100698.44
2022-11-07T11:57:48.006Z,100701.13
2022-11-07T12:00:22.293Z,100708.00
2022-11-07T12:03:22.095Z,100711.44
2022-11-07T12:06:13.711Z,100702.84
2022-11-07T12:08:52.781Z,100705.50
2022-11-07T12:11:51.081Z,100697.81
2022-11-07T12:14:40.798Z,100702.97
2022-11-07T12:17:11.607Z,100712.38
2022-11-07T12:19:56.631Z,100717.53
2022-11-07T12:22:46.385Z,100716.81
2022-11-07T12:25:43.133Z,100711.69
2022-11-07T12:28:29.268Z,100716.84
2022-11-07T12:31:03.931Z,100722.00
2022-11-07T12:34:02.304Z,100711.81
2022-11-07T12:37:11.948Z,100717.00
2022-11-07T12:39:56.073Z,100725.59
2022-11-07T12:42:35.017Z,100735.09
2022-11-07T12:45:27.369Z,100739.47
2022-11-07T12:47:56.208Z,100724.84
2022-11-07T12:50:50.732Z,100747.25
2022-11-07T12:53:30.180Z,100736.09
2022-11-07T12:56:06.011Z,100732.75
2022-11-07T12:58:36.399Z,100739.63
2022-11-07T13:01:06.853Z,100736.31
2022-11-07T13:03:46.580Z,100739.56
2022-11-07T13:06:34.003Z,100733.69
2022-11-07T13:09:47.913Z,100739.56
2022-11-07T13:12:18.356Z,100738.69
2022-11-07T13:14:47.697Z,100754.19
2022-11-07T13:17:21.584Z,100734.53
2022-11-07T13:20:03.388Z,100740.47
2022-11-07T13:22:35.278Z,100751.66
2022-11-07T13:25:16.433Z,100742.25
2022-11-07T13:28:00.234Z,100751.66
2022-11-07T13:30:30.960Z,100750.81
2022-11-07T13:33:01.417Z,100755.94
2022-11-07T13:35:38.783Z,100758.50
2022-11-07T13:38:18.276Z,100754.25
2022-11-07T13:40:49.462Z,100751.63
2022-11-07T13:43:56.009Z,100757.72
2022-11-07T13:46:30.861Z,100756.88
2022-11-07T13:49:03.701Z,100758.66
2022-11-07T13:51:46.521Z,100754.41
2022-11-07T13:54:35.669Z,100762.19
2022-11-07T13:57:21.094Z,100757.88
2022-11-07T14:00:02.791Z,100757.03
2022-11-07T14:02:34.739Z,100759.59
2022-11-07T14:05:16.400Z,100754.53
2022-11-07T14:08:15.798Z,100758.72
2022-11-07T14:10:49.361Z,100761.28
2022-11-07T14:13:39.652Z,100756.97
2022-11-07T14:16:23.432Z,100767.28
2022-11-07T14:18:59.648Z,100759.50
2022-11-07T14:21:33.962Z,100762.94
2022-11-07T14:24:02.435Z,100767.22
2022-11-07T14:26:39.945Z,100768.97
2022-11-07T14:29:09.498Z,100776.66
2022-11-07T14:31:39.027Z,100766.41
2022-11-07T14:34:19.839Z,100768.13
2022-11-07T14:36:51.744Z,100765.56
2022-11-07T14:39:23.068Z,100765.56
2022-11-07T14:41:52.600Z,100763.81
2022-11-07T14:44:36.448Z,100768.97
2022-11-07T14:47:23.136Z,100761.25
2022-11-07T14:49:54.082Z,100753.69
2022-11-07T14:52:30.353Z,100765.59
2022-11-07T14:55:09.650Z,100770.75
2022-11-07T14:57:39.714Z,100762.19
2022-11-07T15:00:14.144Z,100767.34
2022-11-07T15:02:44.846Z,100781.06
2022-11-07T15:05:38.556Z,100764.75
2022-11-07T15:08:08.671Z,100770.72
2022-11-07T15:10:42.025Z,100760.41
2022-11-07T15:13:28.264Z,100769.03
2022-11-07T15:16:04.690Z,100766.44
2022-11-07T15:18:38.996Z,100761.28
2022-11-07T15:21:08.084Z,100763.88
2022-11-07T15:23:36.410Z,100776.75
2022-11-07T15:26:07.534Z,100765.56
2022-11-07T15:28:53.704Z,100772.44
2022-11-07T15:31:31.235Z,100766.41
2022-11-07T15:34:01.281Z,100779.22
2022-11-07T15:36:29.306Z,100773.22
2022-11-07T15:38:58.704Z,100760.34
2022-11-07T15:41:26.726Z,100748.69
2022-11-07T15:43:54.706Z,100762.94
2022-11-07T15:46:55.084Z,100771.53
2022-11-07T15:49:23.709Z,100769.81
2022-11-07T15:51:51.703Z,100775.84
2022-11-07T15:54:20.728Z,100766.44
2022-11-07T15:56:54.558Z,100772.50
2022-11-07T15:59:33.081Z,100779.31
2022-11-07T16:02:01.995Z,100768.19
2022-11-07T16:04:30.452Z,100770.75
2022-11-07T16:07:01.469Z,100775.13
2022-11-07T16:09:34.196Z,100763.31
2022-11-07T16:12:02.228Z,100770.22
2022-11-07T16:14:43.356Z,100769.44
2022-11-07T16:17:18.377Z,100765.97
2022-11-07T16:19:47.313Z,100758.34
2022-11-07T16:22:16.871Z,100765.78
2022-11-07T16:24:44.945Z,100764.84
2022-11-07T16:27:20.697Z,100768.25
2022-11-07T16:29:48.725Z,100765.63
2022-11-07T16:32:18.711Z,100757.19
2022-11-07T16:34:47.589Z,100773.34
2022-11-07T16:37:15.600Z,100768.13
2022-11-07T16:39:43.662Z,100756.03
2022-11-07T16:42:16.915Z,100766.34
2022-11-07T16:44:45.035Z,100772.50
2022-11-07T16:47:22.428Z,100749.56
2022-11-07T16:49:54.934Z,100760.47
2022-11-07T16:52:25.927Z,100775.06
2022-11-07T16:54:53.927Z,100771.59
2022-11-07T16:57:24.461Z,100775.91
2022-11-07T16:59:53.600Z,100779.31
2022-11-07T17:02:24.587Z,100765.56
2022-11-07T17:04:55.255Z,100772.38
2022-11-07T17:07:24.657Z,100768.06
2022-11-07T17:09:52.900Z,100752.75
2022-11-07T17:12:24.049Z,100770.66
2022-11-07T17:14:53.343Z,100767.28
2022-11-07T17:17:22.190Z,100751.25
2022-11-07T17:19:50.353Z,100769.91
2022-11-07T17:22:20.633Z,100755.47
2022-11-07T17:24:48.872Z,100770.72
2022-11-07T17:27:23.461Z,100772.38
2022-11-07T17:29:52.898Z,100769.81
2022-11-07T17:32:21.837Z,100766.41
2022-11-07T17:35:10.535Z,100761.41
2022-11-07T17:37:38.688Z,100771.59
2022-11-07T17:40:07.511Z,100775.91
2022-11-07T17:42:38.237Z,100777.66
2022-11-07T17:45:09.819Z,100788.03
2022-11-07T17:47:37.941Z,100779.44
2022-11-07T17:50:06.518Z,100780.34
2022-11-07T17:52:34.671Z,100778.56
2022-11-07T17:55:02.862Z,100777.75
2022-11-07T17:57:31.066Z,100784.66
2022-11-07T17:59:59.263Z,100779.50
2022-11-07T18:02:28.009Z,100778.66
2022-11-07T18:04:56.080Z,100780.34
2022-11-07T18:07:25.058Z,100789.81
2022-11-07T18:09:53.860Z,100775.19
2022-11-07T18:12:21.821Z,100775.13
2022-11-07T18:14:50.030Z,100781.19
2022-11-07T18:17:17.969Z,100784.59
2022-11-07T18:19:45.956Z,100787.22
2022-11-07T18:22:14.075Z,100778.66
2022-11-07T18:24:42.514Z,100774.50
2022-11-07T18:27:10.870Z,100776.13
2022-11-07T18:29:40.661Z,100783.06
2022-11-07T18:32:08.388Z,100783.91
2022-11-07T18:34:36.286Z,100789.06
2022-11-07T18:37:06.540Z,100799.41
2022-11-07T18:39:34.568Z,100785.75
2022-11-07T18:42:02.521Z,100784.00
2022-11-07T18:44:30.644Z,100790.06
2022-11-07T18:46:58.749Z,100772.03
2022-11-07T18:49:26.715Z,100790.91
2022-11-07T18:51:54.933Z,100787.53
2022-11-07T18:54:23.877Z,100786.69
2022-11-07T18:56:51.972Z,100790.06
2022-11-07T18:59:20.164Z,100788.38
2022-11-07T19:01:48.270Z,100792.69
2022-11-07T19:04:16.489Z,100796.03
2022-11-07T19:07:06.834Z,100792.69
2022-11-07T19:09:35.010Z,100796.84
2022-11-07T19:12:02.957Z,100790.91
2022-11-07T19:14:31.700Z,100802.13
2022-11-07T19:17:01.300Z,100798.72
2022-11-07T19:19:29.230Z,100797.03
2022-11-07T19:21:57.931Z,100794.66
2022-11-07T19:24:25.965Z,100806.78
2022-11-07T19:26:53.991Z,100806.00
2022-11-07T19:29:23.115Z,100810.34
2022-11-07T19:31:51.123Z,100810.34
2022-11-07T19:34:20.095Z,100815.56
2022-11-07T19:36:51.150Z,100816.41
2022-11-07T19:39:19.128Z,100811.25
2022-11-07T19:41:47.107Z,100814.66
2022-11-07T19:44:15.447Z,100813.81
2022-11-07T19:46:43.575Z,100823.22
2022-11-07T19:49:11.525Z,100822.28
2022-11-07T19:51:41.158Z,100813.66
2022-11-07T19:54:10.530Z,100817.09
2022-11-07T19:56:39.404Z,100792.41
2022-11-07T19:59:07.717Z,100810.22
2022-11-07T20:01:36.237Z,100817.94
2022-11-07T20:04:06.830Z,100825.63
2022-11-07T20:06:39.612Z,100824.72
2022-11-07T20:09:10.976Z,100808.44
2022-11-07T20:11:38.999Z,100818.72
2022-11-07T20:14:07.741Z,100815.25
2022-11-07T20:16:37.970Z,100823.78
2022-11-07T20:19:06.681Z,100820.31
2022-11-07T20:21:35.528Z,100803.31
2022-11-07T20:24:06.032Z,100813.38
2022-11-07T20:26:34.303Z,100800.50
2022-11-07T20:29:06.209Z,100814.28
2022-11-07T20:31:43.911Z,100814.31
2022-11-07T20:34:18.569Z,100815.16
2022-11-07T20:36:48.909Z,100814.22
2022-11-07T20:39:17.441Z,100794.91
2022-11-07T20:41:46.440Z,100809.88
2022-11-07T20:44:16.300Z,100808.13
2022-11-07T20:46:46.648Z,100815.03
2022-11-07T20:49:16.793Z,100808.94
2022-11-07T20:51:45.619Z,100810.56
2022-11-07T20:54:16.886Z,100803.69
2022-11-07T20:56:45.011Z,100804.50
2022-11-07T20:59:13.103Z,100798.53
2022-11-07T21:01:41.392Z,100801.91
2022-11-07T21:04:14.391Z,100799.38
2022-11-07T21:06:42.448Z,100807.94
2022-11-07T21:09:12.284Z,100801.06
2022-11-07T21:11:45.525Z,100813.09
2022-11-07T21:14:13.443Z,100801.91
2022-11-07T21:16:41.511Z,100792.44
2022-11-07T21:19:12.610Z,100801.84
2022-11-07T21:21:40.613Z,100801.00
2022-11-07T21:24:09.088Z,100807.03
2022-11-07T21:26:44.431Z,100793.28
2022-11-07T21:29:12.467Z,100758.00
2022-11-07T21:31:41.227Z,100789.84
2022-11-07T21:34:11.947Z,100795.78
2022-11-07T21:36:39.972Z,100797.59
2022-11-07T21:39:10.681Z,100788.16
2022-11-07T21:41:39.102Z,100793.22
2022-11-07T21:44:07.037Z,100788.97
2022-11-07T21:46:37.631Z,100794.94
2022-11-07T21:49:06.957Z,100782.22
2022-11-07T21:51:36.095Z,100792.38
2022-11-07T21:54:06.025Z,100798.44
2022-11-07T21:56:37.960Z,100794.13
2022-11-07T21:59:11.462Z,100801.84
2022-11-07T22:01:40.937Z,100786.59
2022-11-07T22:04:13.375Z,100794.91
2022-11-07T22:06:44.518Z,100801.78
2022-11-07T22:09:17.085Z,100800.06
2022-11-07T22:11:48.427Z,100783.91
2022-11-07T22:14:20.470Z,100788.16
2022-11-07T22:16:49.569Z,100793.94
2022-11-07T22:19:19.061Z,100805.09
2022-11-07T22:21:47.087Z,100802.53
2022-11-07T22:24:15.058Z,100812.81
2022-11-07T22:26:45.602Z,100798.28
2022-11-07T22:29:13.602Z,100802.47
2022-11-07T22:31:41.553Z,100809.31
2022-11-07T22:34:12.570Z,100808.47
2022-11-07T22:36:40.576Z,100805.84
2022-11-07T22:39:08.564Z,100808.38
2022-11-07T22:41:36.905Z,100799.09
2022-11-07T22:44:05.031Z,100813.47
2022-11-07T22:46:33.169Z,100823.72
2022-11-07T22:49:01.667Z,100815.94
2022-11-07T22:51:32.513Z,100815.16
2022-11-07T22:54:03.296Z,100818.56
2022-11-07T22:56:34.219Z,100817.69
2022-11-07T22:59:02.265Z,100808.25
2022-11-07T23:01:33.443Z,100814.34
2022-11-07T23:04:02.837Z,100821.16
2022-11-07T23:06:30.996Z,100812.69
2022-11-07T23:09:00.805Z,100819.38
2022-11-07T23:11:49.198Z,100817.63
2022-11-07T23:14:22.077Z,100821.88
2022-11-07T23:16:53.168Z,100817.56
2022-11-07T23:19:24.115Z,100824.47
2022-11-07T23:21:53.832Z,100829.53
2022-11-07T23:24:22.398Z,100825.25
2022-11-07T23:26:50.728Z,100813.41
2022-11-07T23:29:24.772Z,100831.25
2022-11-07T23:31:53.706Z,100822.69
2022-11-07T23:34:23.087Z,100824.31
2022-11-07T23:36:52.064Z,100826.00
2022-11-07T23:39:22.916Z,100821.69
2022-11-07T23:41:50.944Z,100824.25
2022-11-07T23:44:19.011Z,100824.22
2022-11-07T23:47:05.709Z,100823.31
2022-11-07T23:49:51.883Z,100826.75
2022-11-07T23:52:21.024Z,100831.06
2022-11-07T23:55:07.830Z,100817.53
2022-11-07T23:57:59.737Z,100816.44
